sensor_id;sensor_type;location;lat;lon;timestamp;temperature;humidity
10654;DHT22;5375;51.250;6.776;2023-04-16T00:00:00;19.30;46.30
10654;DHT22;5375;51.250;6.776;2023-04-16T00:02:28;19.30;46.30
10654;DHT22;5375;51.250;6.776;2023-04-16T00:04:55;19.30;46.30
10654;DHT22;5375;51.250;6.776;2023-04-16T00:07:20;19.30;46.40
10654;DHT22;5375;51.250;6.776;2023-04-16T00:09:46;19.30;46.30
10654;DHT22;5375;51.250;6.776;2023-04-16T00:12:12;19.30;46.30
10654;DHT22;5375;51.250;6.776;2023-04-16T00:14:37;19.30;46.30
10654;DHT22;5375;51.250;6.776;2023-04-16T00:17:04;19.30;46.40
10654;DHT22;5375;51.250;6.776;2023-04-16T00:19:30;19.30;46.30
10654;DHT22;5375;51.250;6.776;2023-04-16T00:21:56;19.30;46.40
10654;DHT22;5375;51.250;6.776;2023-04-16T00:24:24;19.30;46.40
10654;DHT22;5375;51.250;6.776;2023-04-16T00:26:50;19.30;46.40
10654;DHT22;5375;51.250;6.776;2023-04-16T00:29:16;19.30;46.40
10654;DHT22;5375;51.250;6.776;2023-04-16T00:31:42;19.30;46.40
10654;DHT22;5375;51.250;6.776;2023-04-16T00:34:07;19.20;46.40
10654;DHT22;5375;51.250;6.776;2023-04-16T00:36:34;19.30;46.40
10654;DHT22;5375;51.250;6.776;2023-04-16T00:39:03;19.20;46.40
10654;DHT22;5375;51.250;6.776;2023-04-16T00:41:29;19.20;46.40
10654;DHT22;5375;51.250;6.776;2023-04-16T00:43:55;19.30;46.50
10654;DHT22;5375;51.250;6.776;2023-04-16T00:46:24;19.20;46.40
10654;DHT22;5375;51.250;6.776;2023-04-16T00:48:52;19.20;46.40
10654;DHT22;5375;51.250;6.776;2023-04-16T00:51:20;19.30;46.40
10654;DHT22;5375;51.250;6.776;2023-04-16T00:53:47;19.20;46.40
10654;DHT22;5375;51.250;6.776;2023-04-16T00:56:13;19.20;46.40
10654;DHT22;5375;51.250;6.776;2023-04-16T00:58:39;19.20;46.40
10654;DHT22;5375;51.250;6.776;2023-04-16T01:01:06;19.20;46.40
10654;DHT22;5375;51.250;6.776;2023-04-16T01:03:43;19.20;46.40
10654;DHT22;5375;51.250;6.776;2023-04-16T01:06:09;19.20;46.40
10654;DHT22;5375;51.250;6.776;2023-04-16T01:08:35;19.20;46.40
10654;DHT22;5375;51.250;6.776;2023-04-16T01:11:02;19.20;46.40
10654;DHT22;5375;51.250;6.776;2023-04-16T01:13:29;19.20;46.40
10654;DHT22;5375;51.250;6.776;2023-04-16T01:15:55;19.20;46.40
10654;DHT22;5375;51.250;6.776;2023-04-16T01:18:22;19.20;46.40
10654;DHT22;5375;51.250;6.776;2023-04-16T01:20:49;19.20;46.50
10654;DHT22;5375;51.250;6.776;2023-04-16T01:23:15;19.20;46.40
10654;DHT22;5375;51.250;6.776;2023-04-16T01:25:43;19.20;46.40
10654;DHT22;5375;51.250;6.776;2023-04-16T01:28:08;19.20;46.50
10654;DHT22;5375;51.250;6.776;2023-04-16T01:30:35;19.20;46.40
10654;DHT22;5375;51.250;6.776;2023-04-16T01:33:02;19.20;46.50
10654;DHT22;5375;51.250;6.776;2023-04-16T01:35:27;19.20;46.50
10654;DHT22;5375;51.250;6.776;2023-04-16T01:37:53;19.20;46.50
10654;DHT22;5375;51.250;6.776;2023-04-16T01:40:19;19.20;46.50
10654;DHT22;5375;51.250;6.776;2023-04-16T01:42:49;19.20;46.50
10654;DHT22;5375;51.250;6.776;2023-04-16T01:45:16;19.10;46.40
10654;DHT22;5375;51.250;6.776;2023-04-16T01:47:41;19.20;46.50
10654;DHT22;5375;51.250;6.776;2023-04-16T01:50:08;19.20;46.50
10654;DHT22;5375;51.250;6.776;2023-04-16T01:52:34;19.20;46.50
10654;DHT22;5375;51.250;6.776;2023-04-16T01:54:59;19.20;46.50
10654;DHT22;5375;51.250;6.776;2023-04-16T01:57:25;19.20;46.50
10654;DHT22;5375;51.250;6.776;2023-04-16T01:59:50;19.20;46.50
10654;DHT22;5375;51.250;6.776;2023-04-16T02:02:16;19.20;46.50
10654;DHT22;5375;51.250;6.776;2023-04-16T02:04:44;19.10;46.50
10654;DHT22;5375;51.250;6.776;2023-04-16T02:07:10;19.10;46.50
10654;DHT22;5375;51.250;6.776;2023-04-16T02:09:37;19.10;46.50
10654;DHT22;5375;51.250;6.776;2023-04-16T02:12:05;19.10;46.50
10654;DHT22;5375;51.250;6.776;2023-04-16T02:14:32;19.10;46.50
10654;DHT22;5375;51.250;6.776;2023-04-16T02:16:58;19.10;46.50
10654;DHT22;5375;51.250;6.776;2023-04-16T02:19:24;19.10;46.60
10654;DHT22;5375;51.250;6.776;2023-04-16T02:21:51;19.10;46.60
10654;DHT22;5375;51.250;6.776;2023-04-16T02:24:17;19.10;46.50
10654;DHT22;5375;51.250;6.776;2023-04-16T02:26:43;19.10;46.60
10654;DHT22;5375;51.250;6.776;2023-04-16T02:29:18;19.10;46.60
10654;DHT22;5375;51.250;6.776;2023-04-16T02:31:44;19.10;46.60
10654;DHT22;5375;51.250;6.776;2023-04-16T02:34:11;19.10;46.60
10654;DHT22;5375;51.250;6.776;2023-04-16T02:36:37;19.10;46.60
10654;DHT22;5375;51.250;6.776;2023-04-16T02:39:03;19.10;46.60
10654;DHT22;5375;51.250;6.776;2023-04-16T02:41:29;19.10;46.60
10654;DHT22;5375;51.250;6.776;2023-04-16T02:43:55;19.10;46.60
10654;DHT22;5375;51.250;6.776;2023-04-16T02:46:21;19.10;46.60
10654;DHT22;5375;51.250;6.776;2023-04-16T02:48:47;19.10;46.70
10654;DHT22;5375;51.250;6.776;2023-04-16T02:51:15;19.10;46.60
10654;DHT22;5375;51.250;6.776;2023-04-16T02:53:47;19.10;46.70
10654;DHT22;5375;51.250;6.776;2023-04-16T02:56:14;19.10;46.70
10654;DHT22;5375;51.250;6.776;2023-04-16T02:58:40;19.10;46.70
10654;DHT22;5375;51.250;6.776;2023-04-16T03:01:06;19.10;46.70
10654;DHT22;5375;51.250;6.776;2023-04-16T03:03:33;19.10;46.70
10654;DHT22;5375;51.250;6.776;2023-04-16T03:05:58;19.10;46.70
10654;DHT22;5375;51.250;6.776;2023-04-16T03:08:24;19.10;46.70
10654;DHT22;5375;51.250;6.776;2023-04-16T03:10:50;19.10;46.70
10654;DHT22;5375;51.250;6.776;2023-04-16T03:13:16;19.10;46.80
10654;DHT22;5375;51.250;6.776;2023-04-16T03:15:49;19.10;46.70
10654;DHT22;5375;51.250;6.776;2023-04-16T03:18:17;19.10;46.70
10654;DHT22;5375;51.250;6.776;2023-04-16T03:20:42;19.10;46.70
10654;DHT22;5375;51.250;6.776;2023-04-16T03:25:44;19.10;46.30
10654;DHT22;5375;51.250;6.776;2023-04-16T03:28:12;19.00;46.70
10654;DHT22;5375;51.250;6.776;2023-04-16T03:30:38;19.10;46.80
10654;DHT22;5375;51.250;6.776;2023-04-16T03:33:03;19.00;46.70
10654;DHT22;5375;51.250;6.776;2023-04-16T03:35:29;19.10;46.80
10654;DHT22;5375;51.250;6.776;2023-04-16T03:37:55;19.10;46.80
10654;DHT22;5375;51.250;6.776;2023-04-16T03:40:20;19.00;46.80
10654;DHT22;5375;51.250;6.776;2023-04-16T03:42:46;19.00;46.70
10654;DHT22;5375;51.250;6.776;2023-04-16T03:45:11;19.10;46.80
10654;DHT22;5375;51.250;6.776;2023-04-16T03:47:37;19.10;46.80
10654;DHT22;5375;51.250;6.776;2023-04-16T03:50:03;19.10;46.80
10654;DHT22;5375;51.250;6.776;2023-04-16T03:52:28;19.10;46.80
10654;DHT22;5375;51.250;6.776;2023-04-16T03:54:54;19.20;46.80
10654;DHT22;5375;51.250;6.776;2023-04-16T03:57:19;19.10;46.80
10654;DHT22;5375;51.250;6.776;2023-04-16T03:59:45;19.10;46.80
10654;DHT22;5375;51.250;6.776;2023-04-16T04:02:10;19.20;46.90
10654;DHT22;5375;51.250;6.776;2023-04-16T04:04:36;19.20;46.90
10654;DHT22;5375;51.250;6.776;2023-04-16T04:07:01;19.20;46.90
10654;DHT22;5375;51.250;6.776;2023-04-16T04:09:27;20.50;47.50
10654;DHT22;5375;51.250;6.776;2023-04-16T04:11:53;19.20;46.90
10654;DHT22;5375;51.250;6.776;2023-04-16T04:14:19;19.20;46.90
10654;DHT22;5375;51.250;6.776;2023-04-16T04:16:44;19.20;46.90
10654;DHT22;5375;51.250;6.776;2023-04-16T04:19:10;19.20;46.90
10654;DHT22;5375;51.250;6.776;2023-04-16T04:21:36;19.30;47.00
10654;DHT22;5375;51.250;6.776;2023-04-16T04:24:01;19.30;46.90
10654;DHT22;5375;51.250;6.776;2023-04-16T04:26:27;19.20;46.90
10654;DHT22;5375;51.250;6.776;2023-04-16T04:28:52;19.30;47.00
10654;DHT22;5375;51.250;6.776;2023-04-16T04:31:18;19.30;47.00
10654;DHT22;5375;51.250;6.776;2023-04-16T04:33:43;19.30;47.00
10654;DHT22;5375;51.250;6.776;2023-04-16T04:36:09;19.30;46.90
10654;DHT22;5375;51.250;6.776;2023-04-16T04:38:34;19.30;47.00
10654;DHT22;5375;51.250;6.776;2023-04-16T04:41:00;19.30;46.90
10654;DHT22;5375;51.250;6.776;2023-04-16T04:43:26;19.30;47.00
10654;DHT22;5375;51.250;6.776;2023-04-16T04:45:51;19.30;47.00
10654;DHT22;5375;51.250;6.776;2023-04-16T04:48:17;19.30;46.90
10654;DHT22;5375;51.250;6.776;2023-04-16T04:50:44;19.30;46.90
10654;DHT22;5375;51.250;6.776;2023-04-16T04:53:10;19.30;46.90
10654;DHT22;5375;51.250;6.776;2023-04-16T04:55:36;19.30;46.90
10654;DHT22;5375;51.250;6.776;2023-04-16T04:58:03;19.30;46.90
10654;DHT22;5375;51.250;6.776;2023-04-16T05:00:29;19.30;46.90
10654;DHT22;5375;51.250;6.776;2023-04-16T05:02:55;19.30;46.90
10654;DHT22;5375;51.250;6.776;2023-04-16T05:05:21;19.40;47.60
10654;DHT22;5375;51.250;6.776;2023-04-16T05:07:46;19.40;47.00
10654;DHT22;5375;51.250;6.776;2023-04-16T05:10:12;19.30;46.90
10654;DHT22;5375;51.250;6.776;2023-04-16T05:12:38;19.30;46.90
10654;DHT22;5375;51.250;6.776;2023-04-16T05:15:04;19.30;47.00
10654;DHT22;5375;51.250;6.776;2023-04-16T05:17:30;19.40;47.00
10654;DHT22;5375;51.250;6.776;2023-04-16T05:19:56;19.30;46.90
10654;DHT22;5375;51.250;6.776;2023-04-16T05:22:21;19.40;47.00
10654;DHT22;5375;51.250;6.776;2023-04-16T05:24:47;19.40;47.00
10654;DHT22;5375;51.250;6.776;2023-04-16T05:27:12;19.30;47.00
10654;DHT22;5375;51.250;6.776;2023-04-16T05:29:38;19.40;47.00
10654;DHT22;5375;51.250;6.776;2023-04-16T05:32:04;19.40;47.00
10654;DHT22;5375;51.250;6.776;2023-04-16T05:34:29;19.40;47.00
10654;DHT22;5375;51.250;6.776;2023-04-16T05:36:55;19.40;47.10
10654;DHT22;5375;51.250;6.776;2023-04-16T05:39:20;19.40;47.10
10654;DHT22;5375;51.250;6.776;2023-04-16T05:41:46;19.50;47.20
10654;DHT22;5375;51.250;6.776;2023-04-16T05:44:12;19.50;47.20
10654;DHT22;5375;51.250;6.776;2023-04-16T05:46:37;19.50;47.20
10654;DHT22;5375;51.250;6.776;2023-04-16T05:49:03;19.40;47.10
10654;DHT22;5375;51.250;6.776;2023-04-16T05:51:28;19.50;47.20
10654;DHT22;5375;51.250;6.776;2023-04-16T05:53:54;19.50;47.20
10654;DHT22;5375;51.250;6.776;2023-04-16T05:56:19;19.50;47.20
10654;DHT22;5375;51.250;6.776;2023-04-16T05:58:46;19.50;47.30
10654;DHT22;5375;51.250;6.776;2023-04-16T06:01:12;19.50;47.30
10654;DHT22;5375;51.250;6.776;2023-04-16T06:03:37;19.50;47.30
10654;DHT22;5375;51.250;6.776;2023-04-16T06:06:03;19.50;47.30
10654;DHT22;5375;51.250;6.776;2023-04-16T06:08:28;19.50;47.40
10654;DHT22;5375;51.250;6.776;2023-04-16T06:10:54;19.50;48.10
10654;DHT22;5375;51.250;6.776;2023-04-16T06:13:20;19.60;47.50
10654;DHT22;5375;51.250;6.776;2023-04-16T06:15:46;19.50;47.50
10654;DHT22;5375;51.250;6.776;2023-04-16T06:18:12;19.60;47.50
10654;DHT22;5375;51.250;6.776;2023-04-16T06:20:37;19.50;47.40
10654;DHT22;5375;51.250;6.776;2023-04-16T06:23:03;19.50;47.40
10654;DHT22;5375;51.250;6.776;2023-04-16T06:25:28;19.60;47.60
10654;DHT22;5375;51.250;6.776;2023-04-16T06:27:54;19.60;47.50
10654;DHT22;5375;51.250;6.776;2023-04-16T06:30:20;19.60;47.50
10654;DHT22;5375;51.250;6.776;2023-04-16T06:32:45;19.50;47.50
10654;DHT22;5375;51.250;6.776;2023-04-16T06:35:11;19.50;47.50
10654;DHT22;5375;51.250;6.776;2023-04-16T06:37:37;19.50;47.50
10654;DHT22;5375;51.250;6.776;2023-04-16T06:40:03;19.50;47.50
10654;DHT22;5375;51.250;6.776;2023-04-16T06:42:29;19.50;47.50
10654;DHT22;5375;51.250;6.776;2023-04-16T06:44:54;19.50;47.50
10654;DHT22;5375;51.250;6.776;2023-04-16T06:47:20;19.50;47.50
10654;DHT22;5375;51.250;6.776;2023-04-16T06:49:46;19.50;47.50
10654;DHT22;5375;51.250;6.776;2023-04-16T06:52:11;19.60;47.50
10654;DHT22;5375;51.250;6.776;2023-04-16T06:54:38;19.60;47.50
10654;DHT22;5375;51.250;6.776;2023-04-16T06:57:04;19.50;47.50
10654;DHT22;5375;51.250;6.776;2023-04-16T06:59:30;19.60;47.50
10654;DHT22;5375;51.250;6.776;2023-04-16T07:01:55;19.50;47.50
10654;DHT22;5375;51.250;6.776;2023-04-16T07:04:22;19.60;47.60
10654;DHT22;5375;51.250;6.776;2023-04-16T07:06:47;19.50;47.60
10654;DHT22;5375;51.250;6.776;2023-04-16T07:09:13;19.60;47.60
10654;DHT22;5375;51.250;6.776;2023-04-16T07:11:39;19.60;47.60
10654;DHT22;5375;51.250;6.776;2023-04-16T07:14:05;19.60;47.60
10654;DHT22;5375;51.250;6.776;2023-04-16T07:16:30;19.60;47.60
10654;DHT22;5375;51.250;6.776;2023-04-16T07:18:56;19.60;47.70
10654;DHT22;5375;51.250;6.776;2023-04-16T07:21:21;19.60;47.70
10654;DHT22;5375;51.250;6.776;2023-04-16T07:23:47;19.60;47.70
10654;DHT22;5375;51.250;6.776;2023-04-16T07:26:13;19.60;47.70
10654;DHT22;5375;51.250;6.776;2023-04-16T07:28:38;19.60;47.70
10654;DHT22;5375;51.250;6.776;2023-04-16T07:31:04;19.60;47.70
10654;DHT22;5375;51.250;6.776;2023-04-16T07:33:30;19.50;47.70
10654;DHT22;5375;51.250;6.776;2023-04-16T07:35:55;19.60;47.70
10654;DHT22;5375;51.250;6.776;2023-04-16T07:38:21;19.50;47.70
10654;DHT22;5375;51.250;6.776;2023-04-16T07:40:46;19.50;47.70
10654;DHT22;5375;51.250;6.776;2023-04-16T07:43:12;19.50;47.70
10654;DHT22;5375;51.250;6.776;2023-04-16T07:45:39;19.50;47.70
10654;DHT22;5375;51.250;6.776;2023-04-16T07:48:05;19.50;47.70
10654;DHT22;5375;51.250;6.776;2023-04-16T07:50:31;19.50;48.30
10654;DHT22;5375;51.250;6.776;2023-04-16T07:52:56;19.50;47.70
10654;DHT22;5375;51.250;6.776;2023-04-16T07:55:22;19.50;47.70
10654;DHT22;5375;51.250;6.776;2023-04-16T07:57:47;19.50;47.70
10654;DHT22;5375;51.250;6.776;2023-04-16T08:00:13;19.50;47.70
10654;DHT22;5375;51.250;6.776;2023-04-16T08:02:39;19.50;47.70
10654;DHT22;5375;51.250;6.776;2023-04-16T08:05:06;19.50;47.70
10654;DHT22;5375;51.250;6.776;2023-04-16T08:07:31;19.50;47.70
10654;DHT22;5375;51.250;6.776;2023-04-16T08:09:57;19.50;47.70
10654;DHT22;5375;51.250;6.776;2023-04-16T08:12:23;19.50;47.70
10654;DHT22;5375;51.250;6.776;2023-04-16T08:14:48;19.50;47.70
10654;DHT22;5375;51.250;6.776;2023-04-16T08:17:14;19.50;47.70
10654;DHT22;5375;51.250;6.776;2023-04-16T08:19:41;19.50;47.70
10654;DHT22;5375;51.250;6.776;2023-04-16T08:22:08;19.50;47.70
10654;DHT22;5375;51.250;6.776;2023-04-16T08:24:33;19.50;47.80
10654;DHT22;5375;51.250;6.776;2023-04-16T08:26:59;19.50;47.80
10654;DHT22;5375;51.250;6.776;2023-04-16T08:29:24;19.50;48.50
10654;DHT22;5375;51.250;6.776;2023-04-16T08:31:51;19.50;47.90
10654;DHT22;5375;51.250;6.776;2023-04-16T08:34:17;19.50;48.00
10654;DHT22;5375;51.250;6.776;2023-04-16T08:36:42;19.50;48.00
10654;DHT22;5375;51.250;6.776;2023-04-16T08:39:08;19.50;48.00
10654;DHT22;5375;51.250;6.776;2023-04-16T08:41:35;19.50;48.00
10654;DHT22;5375;51.250;6.776;2023-04-16T08:44:08;19.50;48.10
10654;DHT22;5375;51.250;6.776;2023-04-16T08:46:36;19.60;48.20
10654;DHT22;5375;51.250;6.776;2023-04-16T08:49:05;19.60;48.20
10654;DHT22;5375;51.250;6.776;2023-04-16T08:51:33;19.60;48.30
10654;DHT22;5375;51.250;6.776;2023-04-16T08:54:04;19.60;48.40
10654;DHT22;5375;51.250;6.776;2023-04-16T08:56:35;19.60;48.40
10654;DHT22;5375;51.250;6.776;2023-04-16T08:59:02;19.50;48.40
10654;DHT22;5375;51.250;6.776;2023-04-16T09:01:31;19.60;48.50
10654;DHT22;5375;51.250;6.776;2023-04-16T09:03:58;19.60;48.50
10654;DHT22;5375;51.250;6.776;2023-04-16T09:06:26;19.60;48.50
10654;DHT22;5375;51.250;6.776;2023-04-16T09:08:53;19.50;48.40
10654;DHT22;5375;51.250;6.776;2023-04-16T09:11:19;19.60;48.40
10654;DHT22;5375;51.250;6.776;2023-04-16T09:13:45;19.60;48.50
10654;DHT22;5375;51.250;6.776;2023-04-16T09:16:12;19.60;48.50
10654;DHT22;5375;51.250;6.776;2023-04-16T09:18:38;19.60;48.40
10654;DHT22;5375;51.250;6.776;2023-04-16T09:21:03;19.60;48.40
10654;DHT22;5375;51.250;6.776;2023-04-16T09:23:29;19.60;48.40
10654;DHT22;5375;51.250;6.776;2023-04-16T09:25:58;19.60;48.50
10654;DHT22;5375;51.250;6.776;2023-04-16T09:28:47;19.60;48.50
10654;DHT22;5375;51.250;6.776;2023-04-16T09:31:15;19.60;48.50
10654;DHT22;5375;51.250;6.776;2023-04-16T09:33:41;19.60;48.50
10654;DHT22;5375;51.250;6.776;2023-04-16T09:36:07;19.60;48.50
10654;DHT22;5375;51.250;6.776;2023-04-16T09:38:47;19.60;48.60
10654;DHT22;5375;51.250;6.776;2023-04-16T09:41:13;19.60;48.50
10654;DHT22;5375;51.250;6.776;2023-04-16T09:43:43;19.60;48.50
10654;DHT22;5375;51.250;6.776;2023-04-16T09:46:13;19.60;48.50
10654;DHT22;5375;51.250;6.776;2023-04-16T09:48:39;19.60;48.50
10654;DHT22;5375;51.250;6.776;2023-04-16T09:51:05;19.60;48.40
10654;DHT22;5375;51.250;6.776;2023-04-16T09:53:31;19.60;48.40
10654;DHT22;5375;51.250;6.776;2023-04-16T09:55:58;19.60;48.40
10654;DHT22;5375;51.250;6.776;2023-04-16T09:58:24;19.50;48.30
10654;DHT22;5375;51.250;6.776;2023-04-16T10:01:10;19.60;48.40
10654;DHT22;5375;51.250;6.776;2023-04-16T10:03:38;19.60;48.30
10654;DHT22;5375;51.250;6.776;2023-04-16T10:06:14;19.60;48.30
10654;DHT22;5375;51.250;6.776;2023-04-16T10:08:47;19.60;48.30
10654;DHT22;5375;51.250;6.776;2023-04-16T10:11:13;19.60;48.30
10654;DHT22;5375;51.250;6.776;2023-04-16T10:13:39;19.60;48.30
10654;DHT22;5375;51.250;6.776;2023-04-16T10:16:05;19.60;48.30
10654;DHT22;5375;51.250;6.776;2023-04-16T10:18:32;19.60;48.30
10654;DHT22;5375;51.250;6.776;2023-04-16T10:20:59;19.60;48.30
10654;DHT22;5375;51.250;6.776;2023-04-16T10:23:25;19.60;48.30
10654;DHT22;5375;51.250;6.776;2023-04-16T10:25:53;19.60;48.20
10654;DHT22;5375;51.250;6.776;2023-04-16T10:28:19;19.60;48.20
10654;DHT22;5375;51.250;6.776;2023-04-16T10:30:47;19.60;48.20
10654;DHT22;5375;51.250;6.776;2023-04-16T10:33:21;19.60;48.20
10654;DHT22;5375;51.250;6.776;2023-04-16T10:35:48;19.60;48.20
10654;DHT22;5375;51.250;6.776;2023-04-16T10:38:25;19.60;48.60
10654;DHT22;5375;51.250;6.776;2023-04-16T10:41:02;19.60;48.20
10654;DHT22;5375;51.250;6.776;2023-04-16T10:43:29;19.60;48.20
10654;DHT22;5375;51.250;6.776;2023-04-16T10:45:55;19.50;48.20
10654;DHT22;5375;51.250;6.776;2023-04-16T10:48:23;19.50;48.20
10654;DHT22;5375;51.250;6.776;2023-04-16T10:50:58;19.50;48.20
10654;DHT22;5375;51.250;6.776;2023-04-16T10:53:26;19.50;48.20
10654;DHT22;5375;51.250;6.776;2023-04-16T10:56:09;19.50;48.20
10654;DHT22;5375;51.250;6.776;2023-04-16T10:58:37;19.60;48.20
10654;DHT22;5375;51.250;6.776;2023-04-16T11:01:09;19.50;48.20
10654;DHT22;5375;51.250;6.776;2023-04-16T11:03:40;19.50;48.20
10654;DHT22;5375;51.250;6.776;2023-04-16T11:06:18;19.50;48.20
10654;DHT22;5375;51.250;6.776;2023-04-16T11:08:50;19.50;48.20
10654;DHT22;5375;51.250;6.776;2023-04-16T11:11:17;19.50;48.20
10654;DHT22;5375;51.250;6.776;2023-04-16T11:13:43;19.50;48.20
10654;DHT22;5375;51.250;6.776;2023-04-16T11:16:11;19.50;48.20
10654;DHT22;5375;51.250;6.776;2023-04-16T11:18:38;19.50;48.20
10654;DHT22;5375;51.250;6.776;2023-04-16T11:21:08;19.60;48.20
10654;DHT22;5375;51.250;6.776;2023-04-16T11:23:52;19.50;48.20
10654;DHT22;5375;51.250;6.776;2023-04-16T11:26:25;19.50;48.20
10654;DHT22;5375;51.250;6.776;2023-04-16T11:28:53;19.50;48.20
10654;DHT22;5375;51.250;6.776;2023-04-16T11:31:19;19.50;48.20
10654;DHT22;5375;51.250;6.776;2023-04-16T11:33:45;19.60;48.20
10654;DHT22;5375;51.250;6.776;2023-04-16T11:36:11;19.50;48.20
10654;DHT22;5375;51.250;6.776;2023-04-16T11:38:38;19.60;48.20
10654;DHT22;5375;51.250;6.776;2023-04-16T11:41:06;19.50;48.20
10654;DHT22;5375;51.250;6.776;2023-04-16T11:43:31;19.60;48.30
10654;DHT22;5375;51.250;6.776;2023-04-16T11:46:04;19.60;48.30
10654;DHT22;5375;51.250;6.776;2023-04-16T11:48:51;19.50;48.20
10654;DHT22;5375;51.250;6.776;2023-04-16T11:51:17;19.60;48.20
10654;DHT22;5375;51.250;6.776;2023-04-16T11:56:13;19.60;48.20
10654;DHT22;5375;51.250;6.776;2023-04-16T11:58:38;19.60;48.20
10654;DHT22;5375;51.250;6.776;2023-04-16T12:01:04;19.60;48.20
10654;DHT22;5375;51.250;6.776;2023-04-16T12:03:40;19.60;48.20
10654;DHT22;5375;51.250;6.776;2023-04-16T12:06:08;19.60;48.20
10654;DHT22;5375;51.250;6.776;2023-04-16T12:08:34;19.60;48.20
10654;DHT22;5375;51.250;6.776;2023-04-16T12:11:00;19.60;48.20
10654;DHT22;5375;51.250;6.776;2023-04-16T12:13:26;19.60;48.30
10654;DHT22;5375;51.250;6.776;2023-04-16T12:15:53;19.60;48.20
10654;DHT22;5375;51.250;6.776;2023-04-16T12:18:21;19.50;48.20
10654;DHT22;5375;51.250;6.776;2023-04-16T12:20:48;19.60;48.30
10654;DHT22;5375;51.250;6.776;2023-04-16T12:23:25;19.60;48.20
10654;DHT22;5375;51.250;6.776;2023-04-16T12:25:51;19.60;48.20
10654;DHT22;5375;51.250;6.776;2023-04-16T12:28:28;19.60;48.20
10654;DHT22;5375;51.250;6.776;2023-04-16T12:30:54;19.60;48.20
10654;DHT22;5375;51.250;6.776;2023-04-16T12:33:20;19.60;48.20
10654;DHT22;5375;51.250;6.776;2023-04-16T12:35:46;19.60;48.20
10654;DHT22;5375;51.250;6.776;2023-04-16T12:38:12;19.60;48.20
10654;DHT22;5375;51.250;6.776;2023-04-16T12:40:39;19.50;48.10
10654;DHT22;5375;51.250;6.776;2023-04-16T12:43:05;19.60;48.20
10654;DHT22;5375;51.250;6.776;2023-04-16T12:45:31;19.60;48.20
10654;DHT22;5375;51.250;6.776;2023-04-16T12:47:56;19.60;48.20
10654;DHT22;5375;51.250;6.776;2023-04-16T12:50:22;19.60;48.20
10654;DHT22;5375;51.250;6.776;2023-04-16T12:52:47;19.50;48.10
10654;DHT22;5375;51.250;6.776;2023-04-16T12:55:13;19.60;48.20
10654;DHT22;5375;51.250;6.776;2023-04-16T12:57:39;19.60;48.20
10654;DHT22;5375;51.250;6.776;2023-04-16T13:00:05;19.60;48.20
10654;DHT22;5375;51.250;6.776;2023-04-16T13:02:32;19.60;48.20
10654;DHT22;5375;51.250;6.776;2023-04-16T13:04:58;19.50;48.10
10654;DHT22;5375;51.250;6.776;2023-04-16T13:07:24;19.60;48.20
10654;DHT22;5375;51.250;6.776;2023-04-16T13:09:51;19.60;48.20
10654;DHT22;5375;51.250;6.776;2023-04-16T13:12:17;19.60;48.20
10654;DHT22;5375;51.250;6.776;2023-04-16T13:14:42;19.60;48.20
10654;DHT22;5375;51.250;6.776;2023-04-16T13:17:08;19.60;48.10
10654;DHT22;5375;51.250;6.776;2023-04-16T13:19:34;19.60;48.10
10654;DHT22;5375;51.250;6.776;2023-04-16T13:21:59;19.60;48.20
10654;DHT22;5375;51.250;6.776;2023-04-16T13:24:25;19.60;48.10
10654;DHT22;5375;51.250;6.776;2023-04-16T13:26:51;19.60;48.20
10654;DHT22;5375;51.250;6.776;2023-04-16T13:29:17;19.60;48.20
10654;DHT22;5375;51.250;6.776;2023-04-16T13:31:43;19.60;48.20
10654;DHT22;5375;51.250;6.776;2023-04-16T13:34:09;19.60;48.20
10654;DHT22;5375;51.250;6.776;2023-04-16T13:36:35;19.60;48.20
10654;DHT22;5375;51.250;6.776;2023-04-16T13:39:00;19.60;48.20
10654;DHT22;5375;51.250;6.776;2023-04-16T13:41:28;19.60;48.20
10654;DHT22;5375;51.250;6.776;2023-04-16T13:43:54;19.60;48.20
10654;DHT22;5375;51.250;6.776;2023-04-16T13:46:20;19.60;48.20
10654;DHT22;5375;51.250;6.776;2023-04-16T13:48:45;19.60;48.20
10654;DHT22;5375;51.250;6.776;2023-04-16T13:51:11;19.60;48.20
10654;DHT22;5375;51.250;6.776;2023-04-16T13:53:39;19.60;48.20
10654;DHT22;5375;51.250;6.776;2023-04-16T13:56:05;19.60;48.20
10654;DHT22;5375;51.250;6.776;2023-04-16T13:58:32;19.60;48.20
10654;DHT22;5375;51.250;6.776;2023-04-16T14:00:57;19.60;48.20
10654;DHT22;5375;51.250;6.776;2023-04-16T14:03:24;19.60;48.20
10654;DHT22;5375;51.250;6.776;2023-04-16T14:05:51;19.60;48.20
10654;DHT22;5375;51.250;6.776;2023-04-16T14:08:18;19.60;48.20
10654;DHT22;5375;51.250;6.776;2023-04-16T14:10:48;19.60;48.20
10654;DHT22;5375;51.250;6.776;2023-04-16T14:13:14;19.60;48.20
10654;DHT22;5375;51.250;6.776;2023-04-16T14:15:40;19.70;48.30
10654;DHT22;5375;51.250;6.776;2023-04-16T14:18:06;19.60;48.20
10654;DHT22;5375;51.250;6.776;2023-04-16T14:20:31;19.60;48.20
10654;DHT22;5375;51.250;6.776;2023-04-16T14:22:57;19.60;48.20
10654;DHT22;5375;51.250;6.776;2023-04-16T14:25:23;19.60;48.20
10654;DHT22;5375;51.250;6.776;2023-04-16T14:27:48;19.60;48.20
10654;DHT22;5375;51.250;6.776;2023-04-16T14:30:14;19.60;48.20
10654;DHT22;5375;51.250;6.776;2023-04-16T14:32:41;19.60;48.20
10654;DHT22;5375;51.250;6.776;2023-04-16T14:35:06;19.60;48.20
10654;DHT22;5375;51.250;6.776;2023-04-16T14:37:32;19.60;48.20
10654;DHT22;5375;51.250;6.776;2023-04-16T14:40:00;19.60;48.80
10654;DHT22;5375;51.250;6.776;2023-04-16T14:42:26;19.60;48.20
10654;DHT22;5375;51.250;6.776;2023-04-16T14:44:52;19.60;48.30
10654;DHT22;5375;51.250;6.776;2023-04-16T14:47:17;19.60;48.20
10654;DHT22;5375;51.250;6.776;2023-04-16T14:49:43;19.60;48.20
10654;DHT22;5375;51.250;6.776;2023-04-16T14:52:09;19.60;48.20
10654;DHT22;5375;51.250;6.776;2023-04-16T14:54:35;19.60;48.20
10654;DHT22;5375;51.250;6.776;2023-04-16T14:57:00;19.60;48.20
10654;DHT22;5375;51.250;6.776;2023-04-16T14:59:26;19.50;48.10
10654;DHT22;5375;51.250;6.776;2023-04-16T15:01:54;19.60;48.20
10654;DHT22;5375;51.250;6.776;2023-04-16T15:04:20;19.60;48.20
10654;DHT22;5375;51.250;6.776;2023-04-16T15:06:45;19.60;48.20
10654;DHT22;5375;51.250;6.776;2023-04-16T15:09:11;19.60;48.20
10654;DHT22;5375;51.250;6.776;2023-04-16T15:11:37;19.60;48.20
10654;DHT22;5375;51.250;6.776;2023-04-16T15:14:02;19.60;48.20
10654;DHT22;5375;51.250;6.776;2023-04-16T15:16:28;19.60;48.20
10654;DHT22;5375;51.250;6.776;2023-04-16T15:18:54;19.60;48.20
10654;DHT22;5375;51.250;6.776;2023-04-16T15:21:20;19.60;48.20
10654;DHT22;5375;51.250;6.776;2023-04-16T15:23:45;19.70;48.20
10654;DHT22;5375;51.250;6.776;2023-04-16T15:26:11;19.60;48.10
10654;DHT22;5375;51.250;6.776;2023-04-16T15:28:37;19.60;48.20
10654;DHT22;5375;51.250;6.776;2023-04-16T15:31:02;19.60;48.10
10654;DHT22;5375;51.250;6.776;2023-04-16T15:33:28;19.60;48.20
10654;DHT22;5375;51.250;6.776;2023-04-16T15:35:53;19.60;48.20
10654;DHT22;5375;51.250;6.776;2023-04-16T15:38:19;19.60;48.20
10654;DHT22;5375;51.250;6.776;2023-04-16T15:40:48;19.60;48.20
10654;DHT22;5375;51.250;6.776;2023-04-16T15:43:14;19.60;48.20
10654;DHT22;5375;51.250;6.776;2023-04-16T15:45:40;19.60;48.20